sensor_id;sensor_type;location;lat;lon;timestamp;pressure;altitude;pressure_sealevel;temperature;humidity
54512;BME280;40419;47.438;19.026;2022-12-07T00:01:06;99749.91;;;1.94;100.00
54512;BME280;40419;47.438;19.026;2022-12-07T00:03:35;99759.41;;;1.89;100.00
54512;BME280;40419;47.438;19.026;2022-12-07T00:06:02;99757.84;;;1.86;100.00
54512;BME280;40419;47.438;19.026;2022-12-07T00:08:28;99749.00;;;1.86;100.00
54512;BME280;40419;47.438;19.026;2022-12-07T00:11:01;99754.34;;;1.86;100.00
54512;BME280;40419;47.438;19.026;2022-12-07T00:13:30;99747.03;;;1.88;100.00
54512;BME280;40419;47.438;19.026;2022-12-07T00:16:13;99739.63;;;1.82;100.00
54512;BME280;40419;47.438;19.026;2022-12-07T00:18:40;99748.75;;;1.79;100.00
54512;BME280;40419;47.438;19.026;2022-12-07T00:21:16;99746.69;;;1.73;100.00
54512;BME280;40419;47.438;19.026;2022-12-07T00:23:46;99744.53;;;1.76;100.00
54512;BME280;40419;47.438;19.026;2022-12-07T00:26:28;99740.84;;;1.87;100.00
54512;BME280;40419;47.438;19.026;2022-12-07T00:29:02;99731.59;;;1.82;100.00
54512;BME280;40419;47.438;19.026;2022-12-07T00:31:37;99722.66;;;1.73;100.00
54512;BME280;40419;47.438;19.026;2022-12-07T00:34:12;99720.81;;;1.73;100.00
54512;BME280;40419;47.438;19.026;2022-12-07T00:36:40;99721.13;;;1.70;100.00
54512;BME280;40419;47.438;19.026;2022-12-07T00:39:06;99725.94;;;1.67;100.00
54512;BME280;40419;47.438;19.026;2022-12-07T00:41:34;99725.03;;;1.76;100.00
54512;BME280;40419;47.438;19.026;2022-12-07T00:44:05;99724.78;;;1.69;100.00
54512;BME280;40419;47.438;19.026;2022-12-07T00:46:33;99726.59;;;1.69;100.00
54512;BME280;40419;47.438;19.026;2022-12-07T00:49:03;99718.22;;;1.64;100.00
54512;BME280;40419;47.438;19.026;2022-12-07T00:51:31;99722.88;;;1.80;100.00
54512;BME280;40419;47.438;19.026;2022-12-07T00:53:59;99720.63;;;1.57;100.00
54512;BME280;40419;47.438;19.026;2022-12-07T00:56:28;99726.25;;;1.54;100.00
54512;BME280;40419;47.438;19.026;2022-12-07T00:59:03;99730.53;;;1.47;100.00
54512;BME280;40419;47.438;19.026;2022-12-07T01:01:35;99730.66;;;1.45;100.00
54512;BME280;40419;47.438;19.026;2022-12-07T01:04:02;99730.09;;;1.41;100.00
54512;BME280;40419;47.438;19.026;2022-12-07T01:06:33;99725.19;;;1.47;100.00
54512;BME280;40419;47.438;19.026;2022-12-07T01:09:03;99726.25;;;1.54;100.00
54512;BME280;40419;47.438;19.026;2022-12-07T01:11:32;99731.66;;;1.44;100.00
54512;BME280;40419;47.438;19.026;2022-12-07T01:13:59;99724.19;;;1.48;100.00
54512;BME280;40419;47.438;19.026;2022-12-07T01:16:27;99716.63;;;1.43;100.00
54512;BME280;40419;47.438;19.026;2022-12-07T01:18:57;99722.44;;;1.29;100.00
54512;BME280;40419;47.438;19.026;2022-12-07T01:21:29;99714.66;;;1.45;100.00
54512;BME280;40419;47.438;19.026;2022-12-07T01:23:57;99715.59;;;1.54;100.00
54512;BME280;40419;47.438;19.026;2022-12-07T01:26:24;99716.16;;;1.57;100.00
54512;BME280;40419;47.438;19.026;2022-12-07T01:28:52;99729.06;;;1.24;100.00
54512;BME280;40419;47.438;19.026;2022-12-07T01:31:22;99718.88;;;1.00;100.00
54512;BME280;40419;47.438;19.026;2022-12-07T01:33:51;99716.00;;;0.64;100.00
54512;BME280;40419;47.438;19.026;2022-12-07T01:38:56;99717.41;;;0.59;100.00
54512;BME280;40419;47.438;19.026;2022-12-07T01:41:23;99709.59;;;0.47;100.00
54512;BME280;40419;47.438;19.026;2022-12-07T01:44:27;99709.97;;;0.72;100.00
54512;BME280;40419;47.438;19.026;2022-12-07T01:47:00;99708.00;;;0.64;100.00
54512;BME280;40419;47.438;19.026;2022-12-07T01:54:47;99721.13;;;1.05;100.00
54512;BME280;40419;47.438;19.026;2022-12-07T01:57:17;99707.88;;;0.76;100.00
54512;BME280;40419;47.438;19.026;2022-12-07T01:59:48;99711.72;;;1.11;100.00
54512;BME280;40419;47.438;19.026;2022-12-07T02:02:25;99701.91;;;1.01;100.00
54512;BME280;40419;47.438;19.026;2022-12-07T02:04:53;99702.00;;;1.10;100.00
54512;BME280;40419;47.438;19.026;2022-12-07T02:07:23;99703.69;;;1.11;100.00
54512;BME280;40419;47.438;19.026;2022-12-07T02:09:53;99697.56;;;0.91;100.00
54512;BME280;40419;47.438;19.026;2022-12-07T02:12:20;99695.66;;;1.20;100.00
54512;BME280;40419;47.438;19.026;2022-12-07T02:14:51;99699.78;;;1.42;100.00
54512;BME280;40419;47.438;19.026;2022-12-07T02:17:25;99694.31;;;1.34;100.00
54512;BME280;40419;47.438;19.026;2022-12-07T02:28:04;99682.16;;;1.77;100.00
54512;BME280;40419;47.438;19.026;2022-12-07T02:30:35;99691.13;;;1.58;100.00
54512;BME280;40419;47.438;19.026;2022-12-07T02:33:14;99701.47;;;1.44;100.00
54512;BME280;40419;47.438;19.026;2022-12-07T02:40:55;99694.63;;;1.31;100.00
54512;BME280;40419;47.438;19.026;2022-12-07T02:45:52;99689.63;;;1.46;100.00
54512;BME280;40419;47.438;19.026;2022-12-07T02:48:21;99688.28;;;1.60;100.00
54512;BME280;40419;47.438;19.026;2022-12-07T02:50:54;99698.69;;;1.63;100.00
54512;BME280;40419;47.438;19.026;2022-12-07T02:55:59;99696.03;;;1.81;100.00
54512;BME280;40419;47.438;19.026;2022-12-07T03:02:25;99679.16;;;1.90;100.00
54512;BME280;40419;47.438;19.026;2022-12-07T03:04:53;99676.94;;;1.86;100.00
54512;BME280;40419;47.438;19.026;2022-12-07T03:07:36;99679.06;;;2.00;100.00
54512;BME280;40419;47.438;19.026;2022-12-07T03:19:09;99666.25;;;1.86;100.00
54512;BME280;40419;47.438;19.026;2022-12-07T03:21:42;99663.13;;;1.90;100.00
54512;BME280;40419;47.438;19.026;2022-12-07T03:24:18;99658.59;;;1.91;100.00
54512;BME280;40419;47.438;19.026;2022-12-07T03:26:49;99659.28;;;1.93;100.00
54512;BME280;40419;47.438;19.026;2022-12-07T03:29:27;99671.28;;;1.89;100.00
54512;BME280;40419;47.438;19.026;2022-12-07T03:32:16;99657.78;;;1.90;100.00
54512;BME280;40419;47.438;19.026;2022-12-07T03:34:54;99662.50;;;1.97;100.00
54512;BME280;40419;47.438;19.026;2022-12-07T03:37:31;99659.38;;;2.01;100.00
54512;BME280;40419;47.438;19.026;2022-12-07T03:42:33;99665.19;;;2.15;100.00
54512;BME280;40419;47.438;19.026;2022-12-07T03:45:00;99662.72;;;2.21;100.00
54512;BME280;40419;47.438;19.026;2022-12-07T03:47:30;99661.59;;;2.06;100.00
54512;BME280;40419;47.438;19.026;2022-12-07T03:50:22;99661.19;;;2.19;100.00
54512;BME280;40419;47.438;19.026;2022-12-07T03:55:49;99669.13;;;2.46;100.00
54512;BME280;40419;47.438;19.026;2022-12-07T03:58:20;99674.69;;;2.35;100.00
54512;BME280;40419;47.438;19.026;2022-12-07T04:00:50;99674.06;;;2.41;100.00
54512;BME280;40419;47.438;19.026;2022-12-07T04:03:16;99682.66;;;2.27;100.00
54512;BME280;40419;47.438;19.026;2022-12-07T04:05:44;99683.00;;;2.50;100.00
54512;BME280;40419;47.438;19.026;2022-12-07T04:08:15;99674.81;;;2.52;100.00
54512;BME280;40419;47.438;19.026;2022-12-07T04:10:40;99678.88;;;2.56;100.00
54512;BME280;40419;47.438;19.026;2022-12-07T04:13:09;99673.75;;;2.44;100.00
54512;BME280;40419;47.438;19.026;2022-12-07T04:15:34;99684.44;;;2.44;100.00
54512;BME280;40419;47.438;19.026;2022-12-07T04:18:00;99673.69;;;2.54;100.00
54512;BME280;40419;47.438;19.026;2022-12-07T04:20:25;99680.78;;;2.45;100.00
54512;BME280;40419;47.438;19.026;2022-12-07T04:22:53;99680.47;;;2.48;100.00
54512;BME280;40419;47.438;19.026;2022-12-07T04:25:19;99681.47;;;2.47;100.00
54512;BME280;40419;47.438;19.026;2022-12-07T04:27:48;99686.81;;;2.47;100.00
54512;BME280;40419;47.438;19.026;2022-12-07T04:30:16;99688.19;;;2.52;100.00
54512;BME280;40419;47.438;19.026;2022-12-07T04:32:44;99695.53;;;2.13;100.00
54512;BME280;40419;47.438;19.026;2022-12-07T04:35:09;99696.66;;;1.93;100.00
54512;BME280;40419;47.438;19.026;2022-12-07T04:37:37;99696.03;;;1.81;100.00
54512;BME280;40419;47.438;19.026;2022-12-07T04:40:07;99684.19;;;1.93;100.00
54512;BME280;40419;47.438;19.026;2022-12-07T04:42:33;99688.75;;;2.01;100.00
54512;BME280;40419;47.438;19.026;2022-12-07T04:44:59;99695.00;;;1.92;100.00
54512;BME280;40419;47.438;19.026;2022-12-07T04:47:26;99683.72;;;1.98;100.00
54512;BME280;40419;47.438;19.026;2022-12-07T04:49:57;99682.25;;;2.04;100.00
54512;BME280;40419;47.438;19.026;2022-12-07T04:52:31;99685.00;;;1.94;100.00
54512;BME280;40419;47.438;19.026;2022-12-07T04:54:56;99702.13;;;2.19;100.00
54512;BME280;40419;47.438;19.026;2022-12-07T04:57:24;99687.69;;;2.12;100.00
54512;BME280;40419;47.438;19.026;2022-12-07T04:59:55;99691.03;;;1.96;100.00
54512;BME280;40419;47.438;19.026;2022-12-07T05:02:21;99696.69;;;2.11;100.00
54512;BME280;40419;47.438;19.026;2022-12-07T05:04:48;99696.69;;;2.11;100.00
54512;BME280;40419;47.438;19.026;2022-12-07T05:07:17;99697.84;;;2.08;100.00
54512;BME280;40419;47.438;19.026;2022-12-07T05:09:45;99705.06;;;1.80;100.00
54512;BME280;40419;47.438;19.026;2022-12-07T05:12:12;99698.34;;;1.76;100.00
54512;BME280;40419;47.438;19.026;2022-12-07T05:14:40;99695.38;;;1.97;100.00
54512;BME280;40419;47.438;19.026;2022-12-07T05:17:06;99693.69;;;1.96;100.00
54512;BME280;40419;47.438;19.026;2022-12-07T05:19:33;99693.69;;;1.96;100.00
54512;BME280;40419;47.438;19.026;2022-12-07T05:21:59;99693.09;;;2.02;100.00
54512;BME280;40419;47.438;19.026;2022-12-07T05:24:29;99693.19;;;2.10;100.00
54512;BME280;40419;47.438;19.026;2022-12-07T05:26:54;99696.63;;;2.21;100.00
54512;BME280;40419;47.438;19.026;2022-12-07T05:29:20;99693.56;;;2.16;100.00
54512;BME280;40419;47.438;19.026;2022-12-07T05:31:48;99694.63;;;2.41;100.00
54512;BME280;40419;47.438;19.026;2022-12-07T05:34:13;99696.38;;;2.50;100.00
54512;BME280;40419;47.438;19.026;2022-12-07T05:36:39;99687.75;;;2.38;100.00
54512;BME280;40419;47.438;19.026;2022-12-07T05:39:04;99675.56;;;2.36;100.00
54512;BME280;40419;47.438;19.026;2022-12-07T05:41:33;99682.72;;;2.35;100.00
54512;BME280;40419;47.438;19.026;2022-12-07T05:44:17;99682.53;;;2.55;100.00
54512;BME280;40419;47.438;19.026;2022-12-07T05:46:47;99676.56;;;2.61;100.00
54512;BME280;40419;47.438;19.026;2022-12-07T05:49:13;99681.59;;;2.64;100.00
54512;BME280;40419;47.438;19.026;2022-12-07T05:51:43;99680.72;;;2.55;100.00
54512;BME280;40419;47.438;19.026;2022-12-07T05:54:11;99682.25;;;2.40;100.00
54512;BME280;40419;47.438;19.026;2022-12-07T05:56:36;99679.22;;;2.35;100.00
54512;BME280;40419;47.438;19.026;2022-12-07T05:59:02;99679.88;;;2.37;100.00
54512;BME280;40419;47.438;19.026;2022-12-07T06:01:46;99678.28;;;2.26;100.00
54512;BME280;40419;47.438;19.026;2022-12-07T06:04:12;99675.09;;;2.22;100.00
54512;BME280;40419;47.438;19.026;2022-12-07T06:06:47;99681.63;;;2.28;100.00
54512;BME280;40419;47.438;19.026;2022-12-07T06:09:13;99689.44;;;2.03;100.00
54512;BME280;40419;47.438;19.026;2022-12-07T06:11:43;99676.47;;;2.08;100.00
54512;BME280;40419;47.438;19.026;2022-12-07T06:14:45;99672.50;;;2.12;100.00
54512;BME280;40419;47.438;19.026;2022-12-07T06:17:12;99675.72;;;2.16;100.00
54512;BME280;40419;47.438;19.026;2022-12-07T06:19:40;99680.28;;;2.24;100.00
54512;BME280;40419;47.438;19.026;2022-12-07T06:22:08;99688.06;;;2.17;100.00
54512;BME280;40419;47.438;19.026;2022-12-07T06:24:38;99673.63;;;2.28;100.00
54512;BME280;40419;47.438;19.026;2022-12-07T06:27:04;99678.97;;;2.28;100.00
54512;BME280;40419;47.438;19.026;2022-12-07T06:29:33;99675.00;;;2.32;100.00
54512;BME280;40419;47.438;19.026;2022-12-07T06:31:58;99680.75;;;2.19;100.00
54512;BME280;40419;47.438;19.026;2022-12-07T06:34:27;99678.75;;;2.21;100.00
54512;BME280;40419;47.438;19.026;2022-12-07T06:36:52;99687.28;;;2.25;100.00
54512;BME280;40419;47.438;19.026;2022-12-07T06:39:25;99679.59;;;2.22;100.00
54512;BME280;40419;47.438;19.026;2022-12-07T06:41:51;99687.38;;;2.15;100.00
54512;BME280;40419;47.438;19.026;2022-12-07T06:44:18;99699.59;;;2.18;100.00
54512;BME280;40419;47.438;19.026;2022-12-07T06:46:43;99695.25;;;2.17;100.00
54512;BME280;40419;47.438;19.026;2022-12-07T06:49:09;99694.31;;;2.26;100.00
54512;BME280;40419;47.438;19.026;2022-12-07T06:51:35;99694.88;;;2.29;100.00
54512;BME280;40419;47.438;19.026;2022-12-07T06:54:03;99697.81;;;2.26;100.00
54512;BME280;40419;47.438;19.026;2022-12-07T06:56:29;99700.22;;;2.11;100.00
54512;BME280;40419;47.438;19.026;2022-12-07T06:58:55;99707.19;;;1.94;100.00
54512;BME280;40419;47.438;19.026;2022-12-07T07:01:22;99703.78;;;2.02;100.00
54512;BME280;40419;47.438;19.026;2022-12-07T07:03:50;99705.56;;;2.11;100.00
54512;BME280;40419;47.438;19.026;2022-12-07T07:06:20;99713.78;;;2.18;100.00
54512;BME280;40419;47.438;19.026;2022-12-07T07:08:45;99702.56;;;2.15;100.00
54512;BME280;40419;47.438;19.026;2022-12-07T07:11:11;99702.34;;;2.26;100.00
54512;BME280;40419;47.438;19.026;2022-12-07T07:13:39;99709.22;;;2.28;100.00
54512;BME280;40419;47.438;19.026;2022-12-07T07:16:08;99705.41;;;2.31;100.00
54512;BME280;40419;47.438;19.026;2022-12-07T07:18:38;99705.16;;;2.42;100.00
54512;BME280;40419;47.438;19.026;2022-12-07T07:21:04;99707.38;;;2.47;100.00
54512;BME280;40419;47.438;19.026;2022-12-07T07:23:30;99708.03;;;2.49;100.00
54512;BME280;40419;47.438;19.026;2022-12-07T07:25:56;99702.41;;;2.52;100.00
54512;BME280;40419;47.438;19.026;2022-12-07T07:28:26;99715.06;;;2.50;100.00
54512;BME280;40419;47.438;19.026;2022-12-07T07:30:54;99712.31;;;2.60;100.00
54512;BME280;40419;47.438;19.026;2022-12-07T07:33:20;99712.75;;;2.73;100.00
54512;BME280;40419;47.438;19.026;2022-12-07T07:35:48;99717.41;;;2.71;100.00
54512;BME280;40419;47.438;19.026;2022-12-07T07:38:16;99716.75;;;2.69;100.00
54512;BME280;40419;47.438;19.026;2022-12-07T07:40:43;99708.31;;;2.64;100.00
54512;BME280;40419;47.438;19.026;2022-12-07T07:43:11;99713.22;;;2.69;100.00
54512;BME280;40419;47.438;19.026;2022-12-07T07:45:39;99715.72;;;2.70;100.00
54512;BME280;40419;47.438;19.026;2022-12-07T07:48:07;99712.34;;;2.86;100.00
54512;BME280;40419;47.438;19.026;2022-12-07T07:50:36;99709.81;;;2.84;100.00
54512;BME280;40419;47.438;19.026;2022-12-07T07:53:02;99705.03;;;2.70;100.00
54512;BME280;40419;47.438;19.026;2022-12-07T07:55:27;99705.19;;;2.69;100.00
54512;BME280;40419;47.438;19.026;2022-12-07T07:57:55;99714.91;;;2.70;100.00
54512;BME280;40419;47.438;19.026;2022-12-07T08:00:21;99710.38;;;2.70;100.00
54512;BME280;40419;47.438;19.026;2022-12-07T08:02:46;99710.22;;;2.72;100.00
54512;BME280;40419;47.438;19.026;2022-12-07T08:05:14;99712.59;;;2.75;100.00
54512;BME280;40419;47.438;19.026;2022-12-07T08:07:43;99712.38;;;2.68;100.00
54512;BME280;40419;47.438;19.026;2022-12-07T08:10:10;99712.34;;;2.86;100.00
54512;BME280;40419;47.438;19.026;2022-12-07T08:12:42;99721.09;;;2.96;100.00
54512;BME280;40419;47.438;19.026;2022-12-07T08:15:30;99716.66;;;3.05;100.00
54512;BME280;40419;47.438;19.026;2022-12-07T08:17:55;99713.19;;;3.13;100.00
54512;BME280;40419;47.438;19.026;2022-12-07T08:20:24;99713.81;;;3.07;100.00
54512;BME280;40419;47.438;19.026;2022-12-07T08:22:50;99721.69;;;3.08;100.00
54512;BME280;40419;47.438;19.026;2022-12-07T08:25:18;99717.75;;;3.21;100.00
54512;BME280;40419;47.438;19.026;2022-12-07T08:27:44;99722.88;;;3.14;100.00
54512;BME280;40419;47.438;19.026;2022-12-07T08:30:09;99717.13;;;3.35;100.00
54512;BME280;40419;47.438;19.026;2022-12-07T08:32:35;99722.22;;;3.46;100.00
54512;BME280;40419;47.438;19.026;2022-12-07T08:35:03;99728.69;;;3.35;100.00
54512;BME280;40419;47.438;19.026;2022-12-07T08:37:33;99730.91;;;3.40;100.00
54512;BME280;40419;47.438;19.026;2022-12-07T08:40:01;99738.53;;;3.35;100.00
54512;BME280;40419;47.438;19.026;2022-12-07T08:42:31;99726.94;;;3.52;100.00
54512;BME280;40419;47.438;19.026;2022-12-07T08:45:08;99727.66;;;3.71;100.00
54512;BME280;40419;47.438;19.026;2022-12-07T08:47:37;99727.91;;;3.86;100.00
54512;BME280;40419;47.438;19.026;2022-12-07T08:50:09;99727.16;;;3.67;100.00
54512;BME280;40419;47.438;19.026;2022-12-07T08:52:35;99718.66;;;3.72;100.00
54512;BME280;40419;47.438;19.026;2022-12-07T08:55:03;99727.56;;;3.89;100.00
54512;BME280;40419;47.438;19.026;2022-12-07T08:57:33;99725.75;;;3.98;100.00
54512;BME280;40419;47.438;19.026;2022-12-07T09:00:00;99733.78;;;3.98;100.00
54512;BME280;40419;47.438;19.026;2022-12-07T09:02:26;99739.03;;;4.16;100.00
54512;BME280;40419;47.438;19.026;2022-12-07T09:04:54;99732.47;;;4.02;100.00
54512;BME280;40419;47.438;19.026;2022-12-07T09:07:19;99738.03;;;4.17;100.00
54512;BME280;40419;47.438;19.026;2022-12-07T09:09:45;99738.88;;;4.17;100.00
54512;BME280;40419;47.438;19.026;2022-12-07T09:12:10;99726.28;;;4.18;100.00
54512;BME280;40419;47.438;19.026;2022-12-07T09:14:38;99723.97;;;4.23;100.00
54512;BME280;40419;47.438;19.026;2022-12-07T09:17:10;99718.41;;;4.16;100.00
54512;BME280;40419;47.438;19.026;2022-12-07T09:19:38;99728.16;;;4.17;100.00
54512;BME280;40419;47.438;19.026;2022-12-07T09:22:08;99714.09;;;4.32;100.00
54512;BME280;40419;47.438;19.026;2022-12-07T09:24:36;99718.44;;;4.33;100.00
54512;BME280;40419;47.438;19.026;2022-12-07T09:27:05;99714.09;;;4.15;100.00
54512;BME280;40419;47.438;19.026;2022-12-07T09:29:30;99719.59;;;4.30;100.00
54512;BME280;40419;47.438;19.026;2022-12-07T09:31:56;99712.44;;;4.31;100.00
54512;BME280;40419;47.438;19.026;2022-12-07T09:34:23;99712.41;;;4.39;100.00
54512;BME280;40419;47.438;19.026;2022-12-07T09:36:51;99719.63;;;4.47;100.00
54512;BME280;40419;47.438;19.026;2022-12-07T09:39:17;99716.28;;;4.53;100.00
54512;BME280;40419;47.438;19.026;2022-12-07T09:41:47;99705.38;;;4.54;100.00
54512;BME280;40419;47.438;19.026;2022-12-07T09:44:21;99707.72;;;4.57;100.00
54512;BME280;40419;47.438;19.026;2022-12-07T09:46:48;99704.56;;;4.54;100.00
54512;BME280;40419;47.438;19.026;2022-12-07T09:49:26;99706.56;;;4.60;100.00
54512;BME280;40419;47.438;19.026;2022-12-07T09:54:39;99707.91;;;4.64;100.00
54512;BME280;40419;47.438;19.026;2022-12-07T09:57:07;99704.69;;;4.77;100.00
54512;BME280;40419;47.438;19.026;2022-12-07T09:59:40;99701.22;;;4.68;100.00
54512;BME280;40419;47.438;19.026;2022-12-07T10:02:40;99706.56;;;4.76;100.00
54512;BME280;40419;47.438;19.026;2022-12-07T10:05:21;99694.00;;;4.69;100.00
54512;BME280;40419;47.438;19.026;2022-12-07T10:07:49;99700.69;;;4.73;100.00
54512;BME280;40419;47.438;19.026;2022-12-07T10:10:22;99712.75;;;4.85;100.00
54512;BME280;40419;47.438;19.026;2022-12-07T10:13:07;99698.69;;;4.83;100.00
54512;BME280;40419;47.438;19.026;2022-12-07T10:23:59;99700.34;;;4.92;100.00
54512;BME280;40419;47.438;19.026;2022-12-07T10:31:40;99686.72;;;5.02;100.00
54512;BME280;40419;47.438;19.026;2022-12-07T10:36:50;99674.84;;;4.96;100.00
54512;BME280;40419;47.438;19.026;2022-12-07T10:39:20;99678.50;;;5.12;100.00
54512;BME280;40419;47.438;19.026;2022-12-07T10:41:56;99670.78;;;5.09;100.00
54512;BME280;40419;47.438;19.026;2022-12-07T10:44:29;99679.69;;;5.01;100.00
54512;BME280;40419;47.438;19.026;2022-12-07T11:00:26;99677.75;;;5.35;100.00
54512;BME280;40419;47.438;19.026;2022-12-07T11:03:09;99676.63;;;5.21;100.00
54512;BME280;40419;47.438;19.026;2022-12-07T11:11:34;99672.56;;;5.33;100.00
54512;BME280;40419;47.438;19.026;2022-12-07T11:16:55;99662.47;;;5.35;100.00
54512;BME280;40419;47.438;19.026;2022-12-07T11:19:34;99668.94;;;5.57;100.00
54512;BME280;40419;47.438;19.026;2022-12-07T11:22:17;99661.78;;;5.41;100.00
54512;BME280;40419;47.438;19.026;2022-12-07T11:27:47;99651.91;;;5.33;100.00
54512;BME280;40419;47.438;19.026;2022-12-07T11:30:26;99659.56;;;5.45;100.00
54512;BME280;40419;47.438;19.026;2022-12-07T11:38:50;99659.56;;;5.45;100.00
54512;BME280;40419;47.438;19.026;2022-12-07T11:41:28;99657.03;;;5.52;100.00
54512;BME280;40419;47.438;19.026;2022-12-07T11:52:25;99660.72;;;5.59;100.00
54512;BME280;40419;47.438;19.026;2022-12-07T11:54:53;99664.56;;;5.56;100.00
54512;BME280;40419;47.438;19.026;2022-12-07T11:57:41;99666.19;;;5.65;100.00
54512;BME280;40419;47.438;19.026;2022-12-07T12:00:15;99672.94;;;5.61;100.00
54512;BME280;40419;47.438;19.026;2022-12-07T12:07:46;99659.03;;;5.58;100.00
54512;BME280;40419;47.438;19.026;2022-12-07T12:13:12;99653.34;;;5.53;100.00
54512;BME280;40419;47.438;19.026;2022-12-07T12:15:53;99646.41;;;5.58;100.00
54512;BME280;40419;47.438;19.026;2022-12-07T12:21:07;99626.69;;;5.43;100.00
54512;BME280;40419;47.438;19.026;2022-12-07T12:23:59;99621.06;;;5.29;100.00
54512;BME280;40419;47.438;19.026;2022-12-07T12:26:30;99616.75;;;5.52;100.00
54512;BME280;40419;47.438;19.026;2022-12-07T12:31:32;99616.72;;;5.28;100.00
54512;BME280;40419;47.438;19.026;2022-12-07T12:34:02;99615.91;;;5.20;100.00
54512;BME280;40419;47.438;19.026;2022-12-07T12:44:02;99598.75;;;4.89;100.00
54512;BME280;40419;47.438;19.026;2022-12-07T12:52:02;99597.72;;;4.90;100.00
54512;BME280;40419;47.438;19.026;2022-12-07T12:57:40;99616.84;;;4.95;100.00
54512;BME280;40419;47.438;19.026;2022-12-07T13:02:53;99619.00;;;5.00;100.00
54512;BME280;40419;47.438;19.026;2022-12-07T13:05:23;99610.59;;;5.03;100.00
54512;BME280;40419;47.438;19.026;2022-12-07T13:08:20;99616.44;;;5.07;100.00
54512;BME280;40419;47.438;19.026;2022-12-07T13:10:47;99614.28;;;5.02;100.00
54512;BME280;40419;47.438;19.026;2022-12-07T13:23:36;99624.78;;;5.20;100.00
54512;BME280;40419;47.438;19.026;2022-12-07T13:29:15;99623.97;;;5.20;100.00
54512;BME280;40419;47.438;19.026;2022-12-07T13:31:46;99618.78;;;5.10;100.00
54512;BME280;40419;47.438;19.026;2022-12-07T13:37:04;99623.50;;;5.00;98.15
54512;BME280;40419;47.438;19.026;2022-12-07T13:39:34;99626.41;;;4.90;99.00
54512;BME280;40419;47.438;19.026;2022-12-07T13:42:12;99626.91;;;4.77;100.00
54512;BME280;40419;47.438;19.026;2022-12-07T13:44:45;99625.91;;;4.86;100.00
54512;BME280;40419;47.438;19.026;2022-12-07T13:47:36;99631.44;;;4.85;98.73
54512;BME280;40419;47.438;19.026;2022-12-07T13:50:26;99639.34;;;4.70;100.00
54512;BME280;40419;47.438;19.026;2022-12-07T13:53:00;99639.31;;;4.78;100.00
54512;BME280;40419;47.438;19.026;2022-12-07T13:55:30;99635.31;;;4.74;100.00
54512;BME280;40419;47.438;19.026;2022-12-07T13:58:00;99635.50;;;4.64;100.00
54512;BME280;40419;47.438;19.026;2022-12-07T14:00:28;99639.00;;;4.65;100.00
54512;BME280;40419;47.438;19.026;2022-12-07T14:05:30;99644.38;;;4.73;100.00
54512;BME280;40419;47.438;19.026;2022-12-07T14:08:05;99639.69;;;4.58;100.00
54512;BME280;40419;47.438;19.026;2022-12-07T14:10:37;99640.69;;;4.57;100.00
54512;BME280;40419;47.438;19.026;2022-12-07T14:15:51;99641.72;;;4.48;100.00
54512;BME280;40419;47.438;19.026;2022-12-07T14:23:32;99639.38;;;4.37;100.00
54512;BME280;40419;47.438;19.026;2022-12-07T14:26:35;99638.69;;;4.35;100.00
54512;BME280;40419;47.438;19.026;2022-12-07T14:31:49;99638.03;;;4.33;100.00
54512;BME280;40419;47.438;19.026;2022-12-07T14:34:22;99637.72;;;4.28;100.00
54512;BME280;40419;47.438;19.026;2022-12-07T14:36:48;99631.00;;;4.32;100.00
54512;BME280;40419;47.438;19.026;2022-12-07T14:39:15;99633.84;;;4.22;100.00
54512;BME280;40419;47.438;19.026;2022-12-07T14:41:40;99635.34;;;4.16;100.00
54512;BME280;40419;47.438;19.026;2022-12-07T14:44:22;99645.38;;;4.06;100.00
54512;BME280;40419;47.438;19.026;2022-12-07T14:46:50;99643.22;;;3.93;100.00
54512;BME280;40419;47.438;19.026;2022-12-07T14:49:24;99646.72;;;3.94;100.00
54512;BME280;40419;47.438;19.026;2022-12-07T14:51:49;99634.69;;;3.89;100.00
54512;BME280;40419;47.438;19.026;2022-12-07T14:54:21;99644.38;;;3.90;100.00
54512;BME280;40419;47.438;19.026;2022-12-07T14:56:52;99651.38;;;3.83;100.00
54512;BME280;40419;47.438;19.026;2022-12-07T14:59:18;99655.25;;;3.89;100.00
54512;BME280;40419;47.438;19.026;2022-12-07T15:01:44;99657.06;;;3.80;100.00
54512;BME280;40419;47.438;19.026;2022-12-07T15:04:12;99663.41;;;3.71;100.00
54512;BME280;40419;47.438;19.026;2022-12-07T15:06:41;99649.19;;;3.70;100.00
54512;BME280;40419;47.438;19.026;2022-12-07T15:09:10;99661.91;;;3.77;100.00
54512;BME280;40419;47.438;19.026;2022-12-07T15:11:41;99660.88;;;3.61;100.00
54512;BME280;40419;47.438;19.026;2022-12-07T15:14:07;99664.06;;;3.65;100.00
54512;BME280;40419;47.438;19.026;2022-12-07T15:16:41;99671.75;;;3.60;100.00
54512;BME280;40419;47.438;19.026;2022-12-07T15:19:15;99681.44;;;3.52;100.00
54512;BME280;40419;47.438;19.026;2022-12-07T15:21:42;99675.09;;;3.53;100.00
54512;BME280;40419;47.438;19.026;2022-12-07T15:24:11;99684.59;;;3.56;100.00
54512;BME280;40419;47.438;19.026;2022-12-07T15:26:40;99671.38;;;3.46;100.00
54512;BME280;40419;47.438;19.026;2022-12-07T15:29:14;99677.38;;;3.40;100.00
54512;BME280;40419;47.438;19.026;2022-12-07T15:31:44;99675.13;;;3.27;100.00
54512;BME280;40419;47.438;19.026;2022-12-07T15:34:30;99678.81;;;3.26;100.00
54512;BME280;40419;47.438;19.026;2022-12-07T15:36:57;99678.28;;;3.23;100.00
54512;BME280;40419;47.438;19.026;2022-12-07T15:39:25;99679.06;;;3.07;100.00
54512;BME280;40419;47.438;19.026;2022-12-07T15:41:50;99679.06;;;3.07;100.00
54512;BME280;40419;47.438;19.026;2022-12-07T15:44:17;99696.34;;;2.94;100.00
54512;BME280;40419;47.438;19.026;2022-12-07T15:47:04;99695.63;;;2.84;100.00
54512;BME280;40419;47.438;19.026;2022-12-07T15:49:30;99695.94;;;2.81;100.00
54512;BME280;40419;47.438;19.026;2022-12-07T15:51:58;99701.75;;;2.76;100.00